createdAt,value
2022-11-04T00:04:34.099Z,9.30
2022-11-04T00:09:38.505Z,9.10
2022-11-04T00:14:42.581Z,8.90
2022-11-04T00:20:06.208Z,9.00
2022-11-04T00:25:36.610Z,9.00
2022-11-04T00:30:40.356Z,8.90
2022-11-04T00:35:50.642Z,8.90
2022-11-04T00:40:54.641Z,8.90
2022-11-04T00:45:58.243Z,9.10
2022-11-04T00:56:22.505Z,9.00
2022-11-04T01:01:30.299Z,9.00
2022-11-04T01:06:33.006Z,9.00
2022-11-04T01:11:36.161Z,9.10
2022-11-04T01:16:42.170Z,9.20
2022-11-04T01:21:52.870Z,9.20
2022-11-04T01:26:59.797Z,9.40
2022-11-04T01:32:04.173Z,9.50
2022-11-04T01:37:09.492Z,9.70
2022-11-04T01:42:18.273Z,10.10
2022-11-04T01:47:31.543Z,10.40
2022-11-04T01:52:47.721Z,10.50
2022-11-04T01:57:51.822Z,10.50
2022-11-04T02:03:04.334Z,10.20
2022-11-04T02:08:09.787Z,9.70
2022-11-04T02:13:12.319Z,9.50
2022-11-04T02:18:22.158Z,9.60
2022-11-04T02:23:55.457Z,9.80
2022-11-04T02:29:12.784Z,9.70
2022-11-04T02:34:40.554Z,9.70
2022-11-04T02:40:11.414Z,10.00
2022-11-04T02:45:26.768Z,10.00
2022-11-04T02:50:40.602Z,10.10
2022-11-04T02:56:02.427Z,10.20
2022-11-04T03:07:17.508Z,10.30
2022-11-04T03:14:00.534Z,10.20
2022-11-04T03:19:25.505Z,10.30
2022-11-04T03:24:31.927Z,10.40
2022-11-04T03:30:02.857Z,10.60
2022-11-04T03:35:21.294Z,10.80
2022-11-04T03:40:24.846Z,10.90
2022-11-04T03:45:29.226Z,10.90
2022-11-04T03:50:37.115Z,11.00
2022-11-04T03:55:47.122Z,11.10
2022-11-04T04:01:16.275Z,10.70
2022-11-04T04:06:34.986Z,10.40
2022-11-04T04:12:16.197Z,10.20
2022-11-04T04:17:51.179Z,10.20
2022-11-04T04:23:32.544Z,10.30
2022-11-04T04:29:12.038Z,10.60
2022-11-04T04:34:37.323Z,10.80
2022-11-04T04:40:22.080Z,11.10
2022-11-04T04:45:54.524Z,11.20
2022-11-04T04:51:09.095Z,11.40
2022-11-04T04:56:24.390Z,11.30
2022-11-04T05:01:47.985Z,11.30
2022-11-04T05:18:26.095Z,11.40
2022-11-04T05:23:35.099Z,11.50
2022-11-04T05:28:49.909Z,11.60
2022-11-04T05:33:59.945Z,11.50
2022-11-04T05:39:06.077Z,11.50
2022-11-04T05:50:00.276Z,11.70
2022-11-04T06:00:48.801Z,11.70
2022-11-04T06:05:52.949Z,11.70
2022-11-04T06:11:33.433Z,11.70
2022-11-04T06:28:22.060Z,11.80
2022-11-04T06:33:35.411Z,11.80
2022-11-04T06:39:04.646Z,11.70
2022-11-04T06:44:54.295Z,11.90
2022-11-04T06:56:39.410Z,11.90
2022-11-04T07:08:44.480Z,12.00
2022-11-04T07:13:50.022Z,12.00
2022-11-04T07:32:23.068Z,11.80
2022-11-04T07:44:19.515Z,11.80
2022-11-04T07:49:23.049Z,11.80
2022-11-04T07:59:52.564Z,12.00
2022-11-04T08:05:10.476Z,12.00
2022-11-04T08:10:28.502Z,11.90
2022-11-04T08:15:37.824Z,11.90
2022-11-04T08:21:33.452Z,12.00
2022-11-04T08:32:18.680Z,12.10
2022-11-04T08:37:40.839Z,12.20
2022-11-04T08:43:19.364Z,12.20
2022-11-04T08:48:48.432Z,12.40
2022-11-04T08:54:57.395Z,12.50
2022-11-04T09:01:25.601Z,12.70
2022-11-04T09:13:39.589Z,12.60
2022-11-04T09:25:50.852Z,12.80
2022-11-04T09:31:07.515Z,12.90
2022-11-04T09:36:56.406Z,13.10
2022-11-04T09:47:51.229Z,13.30
2022-11-04T09:58:42.658Z,13.40
2022-11-04T10:04:05.276Z,13.30
2022-11-04T10:09:55.583Z,13.50
2022-11-04T10:15:34.587Z,13.60
2022-11-04T10:21:35.597Z,14.00
2022-11-04T10:27:22.597Z,13.60
2022-11-04T10:32:56.105Z,12.80
2022-11-04T10:38:23.486Z,12.50
2022-11-04T10:43:54.135Z,12.40
2022-11-04T10:56:09.943Z,13.50
2022-11-04T11:07:08.468Z,13.30
2022-11-04T11:12:51.452Z,13.60
2022-11-04T11:18:42.907Z,13.50
2022-11-04T11:24:16.836Z,13.40
2022-11-04T11:29:43.540Z,13.30
2022-11-04T11:35:23.650Z,13.30
2022-11-04T11:41:10.502Z,13.20
2022-11-04T11:46:17.468Z,13.30
2022-11-04T11:51:55.519Z,13.00
2022-11-04T11:57:25.531Z,13.30
2022-11-04T12:15:05.020Z,13.40
2022-11-04T12:20:51.142Z,13.20
2022-11-04T12:33:20.983Z,13.20
2022-11-04T12:46:02.396Z,13.50
2022-11-04T12:52:02.043Z,13.30
2022-11-04T12:57:37.139Z,13.30
2022-11-04T13:03:15.215Z,13.20
2022-11-04T13:26:51.753Z,13.20
2022-11-04T13:32:52.160Z,13.30
2022-11-04T13:38:17.049Z,13.30
2022-11-04T13:43:47.393Z,13.30
2022-11-04T13:49:03.100Z,13.50
2022-11-04T13:55:00.472Z,13.50
2022-11-04T14:06:29.112Z,13.20
2022-11-04T14:18:37.615Z,13.00
2022-11-04T14:59:35.869Z,13.30
2022-11-04T15:05:33.872Z,13.40
2022-11-04T15:10:37.906Z,13.40
2022-11-04T15:29:35.225Z,13.20
2022-11-04T16:22:16.090Z,11.90
2022-11-04T16:27:39.114Z,11.70
2022-11-04T16:32:55.825Z,11.60
2022-11-04T16:38:20.309Z,11.50
2022-11-04T16:54:15.629Z,11.10
2022-11-04T16:59:27.010Z,10.80
2022-11-04T17:10:17.036Z,10.60
2022-11-04T17:15:24.000Z,10.50
2022-11-04T17:20:37.449Z,10.60
2022-11-04T17:25:59.851Z,10.50
2022-11-04T17:31:10.682Z,10.40
2022-11-04T17:36:36.501Z,10.30
2022-11-04T17:42:07.811Z,10.30
2022-11-04T17:47:19.993Z,10.40
2022-11-04T17:52:32.543Z,10.50
2022-11-04T17:57:41.681Z,10.60
2022-11-04T18:02:59.339Z,10.60
2022-11-04T18:08:05.413Z,10.50
2022-11-04T18:13:11.096Z,10.50
2022-11-04T18:18:15.298Z,10.60
2022-11-04T18:23:19.775Z,10.50
2022-11-04T18:28:34.223Z,10.40
2022-11-04T18:33:48.344Z,10.30
2022-11-04T18:38:51.924Z,10.10
2022-11-04T18:43:57.837Z,10.00
2022-11-04T18:49:04.099Z,9.80
2022-11-04T18:54:08.896Z,9.70
2022-11-04T18:59:15.857Z,9.60
2022-11-04T19:04:20.536Z,9.50
2022-11-04T19:14:56.082Z,9.60
2022-11-04T19:20:05.444Z,9.60
2022-11-04T19:25:11.883Z,9.50
2022-11-04T19:30:15.733Z,9.50
2022-11-04T19:35:41.856Z,9.40
2022-11-04T19:41:31.873Z,9.20
2022-11-04T19:46:40.557Z,9.00
2022-11-04T19:51:49.815Z,8.90
2022-11-04T19:56:56.917Z,8.90
2022-11-04T20:02:02.085Z,8.90
2022-11-04T20:07:08.383Z,8.80
2022-11-04T20:12:33.356Z,8.80
2022-11-04T20:17:36.904Z,8.80
2022-11-04T20:22:39.366Z,8.90
2022-11-04T20:27:41.843Z,8.90
2022-11-04T20:32:45.805Z,8.90
2022-11-04T20:37:51.005Z,8.90
2022-11-04T20:42:57.313Z,8.80
2022-11-04T20:48:00.661Z,8.90
2022-11-04T20:53:04.080Z,8.80
2022-11-04T20:58:06.828Z,8.80
2022-11-04T21:03:10.145Z,8.70
2022-11-04T21:08:17.043Z,8.70
2022-11-04T21:13:22.032Z,8.70
2022-11-04T21:18:34.377Z,8.60
2022-11-04T21:23:43.314Z,8.60
2022-11-04T21:28:45.653Z,8.50
2022-11-04T21:33:50.235Z,8.60
2022-11-04T21:38:54.363Z,8.60
2022-11-04T21:44:03.539Z,8.60
2022-11-04T21:49:32.289Z,8.60
2022-11-04T21:54:38.388Z,8.60
2022-11-04T21:59:47.641Z,8.60
2022-11-04T22:04:50.694Z,8.60
2022-11-04T22:09:53.121Z,8.50
2022-11-04T22:15:01.690Z,8.60
2022-11-04T22:20:07.710Z,8.60
2022-11-04T22:25:13.793Z,8.60
2022-11-04T22:30:21.396Z,8.70
2022-11-04T22:35:41.353Z,8.70
2022-11-04T22:40:47.502Z,8.70
2022-11-04T22:46:03.405Z,8.70
2022-11-04T22:51:09.635Z,8.80
2022-11-04T22:56:19.754Z,8.70
2022-11-04T23:01:30.833Z,8.70
2022-11-04T23:06:36.282Z,8.70
2022-11-04T23:12:08.444Z,8.70
2022-11-04T23:17:44.076Z,8.80
2022-11-04T23:23:19.290Z,8.90
2022-11-04T23:28:46.343Z,9.00
2022-11-04T23:34:17.563Z,9.10
2022-11-04T23:39:27.287Z,9.10
2022-11-04T23:44:50.797Z,9.00
2022-11-04T23:50:18.962Z,9.00
2022-11-04T23:55:42.799Z,9.10
